createdAt,value
2022-10-22T00:02:38.060Z,14.49
2022-10-22T00:07:42.560Z,14.43
2022-10-22T00:12:46.511Z,14.42
2022-10-22T00:17:51.880Z,14.32
2022-10-22T00:22:55.630Z,14.29
2022-10-22T00:27:59.358Z,14.23
2022-10-22T00:33:04.621Z,14.15
2022-10-22T00:38:08.283Z,14.09
2022-10-22T00:43:12.612Z,14.11
2022-10-22T00:48:21.805Z,14.05
2022-10-22T00:53:30.908Z,14.02
2022-10-22T00:58:37.455Z,14.00
2022-10-22T01:03:42.502Z,13.89
2022-10-22T01:08:55.767Z,13.94
2022-10-22T01:14:11.103Z,13.93
2022-10-22T01:19:40.808Z,13.88
2022-10-22T01:24:57.204Z,13.87
2022-10-22T01:30:05.766Z,13.73
2022-10-22T01:35:12.676Z,13.74
2022-10-22T01:40:17.220Z,13.74
2022-10-22T01:45:22.332Z,13.70
2022-10-22T01:50:58.248Z,13.74
2022-10-22T01:56:17.859Z,13.77
2022-10-22T02:01:32.394Z,13.78
2022-10-22T02:06:38.393Z,13.77
2022-10-22T02:11:43.185Z,13.81
2022-10-22T02:16:50.687Z,13.84
2022-10-22T02:21:55.584Z,13.86
2022-10-22T02:27:08.295Z,13.88
2022-10-22T02:32:19.216Z,13.92
2022-10-22T02:37:23.923Z,13.93
2022-10-22T02:42:29.364Z,13.96
2022-10-22T02:47:34.385Z,13.96
2022-10-22T02:52:38.605Z,13.98
2022-10-22T02:57:42.830Z,13.94
2022-10-22T03:02:48.259Z,13.95
2022-10-22T03:07:51.923Z,13.93
2022-10-22T03:12:56.085Z,13.89
2022-10-22T03:18:01.197Z,13.88
2022-10-22T03:23:04.970Z,13.85
2022-10-22T03:28:11.919Z,13.85
2022-10-22T03:33:16.915Z,13.82
2022-10-22T03:38:20.727Z,13.80
2022-10-22T03:43:24.454Z,13.80
2022-10-22T03:48:29.450Z,13.80
2022-10-22T03:53:33.134Z,13.75
2022-10-22T03:58:36.916Z,13.73
2022-10-22T04:03:41.984Z,13.71
2022-10-22T04:08:46.927Z,13.70
2022-10-22T04:13:50.659Z,13.68
2022-10-22T04:18:55.708Z,13.62
2022-10-22T04:23:59.441Z,13.59
2022-10-22T04:29:03.169Z,13.59
2022-10-22T04:34:08.200Z,13.60
2022-10-22T04:39:11.862Z,13.57
2022-10-22T04:44:17.028Z,13.58
2022-10-22T04:49:23.601Z,13.57
2022-10-22T04:54:30.505Z,13.57
2022-10-22T04:59:36.716Z,13.60
2022-10-22T05:04:44.638Z,13.58
2022-10-22T05:09:48.310Z,13.61
2022-10-22T05:14:51.982Z,13.63
2022-10-22T05:19:57.003Z,13.57
2022-10-22T05:25:00.624Z,13.61
2022-10-22T05:30:04.774Z,13.61
2022-10-22T05:35:10.480Z,13.64
2022-10-22T05:40:26.601Z,13.62
2022-10-22T05:45:37.764Z,13.62
2022-10-22T05:50:42.754Z,13.60
2022-10-22T05:55:46.574Z,13.54
2022-10-22T06:00:50.296Z,13.54
2022-10-22T06:05:55.334Z,13.51
2022-10-22T06:10:59.214Z,13.47
2022-10-22T06:16:02.902Z,13.40
2022-10-22T06:21:10.080Z,13.34
2022-10-22T06:26:13.776Z,13.34
2022-10-22T06:31:17.663Z,13.31
2022-10-22T06:36:25.370Z,13.24
2022-10-22T06:41:29.777Z,13.27
2022-10-22T06:46:33.639Z,13.26
2022-10-22T06:51:38.686Z,13.28
2022-10-22T06:56:42.876Z,13.29
2022-10-22T07:01:46.758Z,13.29
2022-10-22T07:06:52.069Z,13.39
2022-10-22T07:11:55.737Z,13.55
2022-10-22T07:16:59.428Z,13.71
2022-10-22T07:22:04.532Z,13.85
2022-10-22T07:27:11.060Z,14.00
2022-10-22T07:32:15.564Z,14.07
2022-10-22T07:37:22.062Z,14.09
2022-10-22T07:42:25.910Z,14.11
2022-10-22T07:47:29.679Z,14.14
2022-10-22T07:52:34.850Z,14.14
2022-10-22T07:57:38.677Z,14.17
2022-10-22T08:02:43.022Z,14.29
2022-10-22T08:07:48.311Z,14.41
2022-10-22T08:12:51.988Z,14.51
2022-10-22T08:17:55.801Z,14.66
2022-10-22T08:23:00.968Z,14.72
2022-10-22T08:28:04.859Z,14.81
2022-10-22T08:33:08.544Z,14.96
2022-10-22T08:38:13.628Z,15.02
2022-10-22T08:43:37.876Z,15.15
2022-10-22T08:48:45.670Z,15.43
2022-10-22T08:54:13.497Z,15.49
2022-10-22T08:59:24.238Z,15.51
2022-10-22T09:04:32.108Z,15.40
2022-10-22T09:09:43.343Z,15.41
2022-10-22T09:14:47.102Z,15.41
2022-10-22T09:20:01.967Z,15.38
2022-10-22T09:25:20.128Z,15.50
2022-10-22T09:30:25.379Z,15.50
2022-10-22T09:35:29.576Z,15.58
2022-10-22T09:40:44.459Z,15.63
2022-10-22T09:45:49.706Z,15.78
2022-10-22T09:50:58.404Z,15.95
2022-10-22T09:56:10.032Z,16.11
2022-10-22T10:01:19.531Z,16.34
2022-10-22T10:06:24.596Z,16.27
2022-10-22T10:11:33.444Z,16.51
2022-10-22T10:16:56.724Z,16.87
2022-10-22T10:22:11.953Z,17.41
2022-10-22T10:27:26.006Z,17.46
2022-10-22T10:32:48.198Z,17.59
2022-10-22T10:38:04.653Z,17.47
2022-10-22T10:43:14.566Z,17.42
2022-10-22T10:48:33.350Z,17.48
2022-10-22T10:53:56.064Z,17.55
2022-10-22T10:59:13.573Z,18.30
2022-10-22T11:04:35.187Z,18.19
2022-10-22T11:09:44.732Z,18.03
2022-10-22T11:14:59.519Z,17.93
2022-10-22T11:20:13.386Z,18.44
2022-10-22T11:25:22.839Z,18.86
2022-10-22T11:30:33.020Z,19.77
2022-10-22T11:35:41.329Z,19.33
2022-10-22T11:40:48.409Z,19.19
2022-10-22T11:46:01.839Z,19.64
2022-10-22T11:51:26.598Z,18.87
2022-10-22T11:56:38.577Z,18.94
2022-10-22T12:01:44.253Z,18.94
2022-10-22T12:06:57.081Z,19.03
2022-10-22T12:12:15.614Z,19.22
2022-10-22T12:17:22.801Z,19.01
2022-10-22T12:22:29.396Z,18.99
2022-10-22T12:27:37.319Z,20.41
2022-10-22T12:32:42.461Z,21.47
2022-10-22T12:37:46.606Z,21.65
2022-10-22T12:42:54.996Z,22.88
2022-10-22T12:48:02.330Z,23.82
2022-10-22T12:53:07.121Z,24.54
2022-10-22T12:58:17.399Z,24.96
2022-10-22T13:03:29.433Z,24.80
2022-10-22T13:08:35.401Z,26.35
2022-10-22T13:13:45.538Z,24.41
2022-10-22T13:18:51.243Z,24.08
2022-10-22T13:23:57.645Z,23.72
2022-10-22T13:29:02.324Z,25.34
2022-10-22T13:34:11.796Z,25.50
2022-10-22T13:39:19.079Z,25.52
2022-10-22T13:44:22.729Z,26.14
2022-10-22T13:49:27.717Z,26.33
2022-10-22T13:54:31.475Z,24.38
2022-10-22T13:59:35.100Z,25.85
2022-10-22T14:04:41.981Z,25.53
2022-10-22T14:09:45.644Z,25.32
2022-10-22T14:14:49.327Z,24.33
2022-10-22T14:19:54.599Z,24.06
2022-10-22T14:24:58.467Z,24.96
2022-10-22T14:30:02.178Z,25.57
2022-10-22T14:35:07.964Z,26.86
2022-10-22T14:40:14.919Z,26.26
2022-10-22T14:45:20.994Z,26.03
2022-10-22T14:50:26.402Z,25.56
2022-10-22T14:55:30.107Z,24.55
2022-10-22T15:00:34.463Z,25.48
2022-10-22T15:05:44.441Z,25.33
2022-10-22T15:10:57.926Z,25.05
2022-10-22T15:16:01.978Z,24.66
2022-10-22T15:21:09.129Z,23.21
2022-10-22T15:26:13.724Z,22.94
2022-10-22T15:31:18.203Z,22.39
2022-10-22T15:36:23.225Z,22.34
2022-10-22T15:41:27.032Z,21.72
2022-10-22T15:46:34.674Z,21.61
2022-10-22T15:51:40.675Z,21.46
2022-10-22T15:56:44.571Z,21.27
2022-10-22T16:01:48.685Z,21.05
2022-10-22T16:06:54.702Z,20.80
2022-10-22T16:11:58.372Z,20.58
2022-10-22T16:17:02.119Z,20.34
2022-10-22T16:22:10.072Z,20.06
2022-10-22T16:27:13.621Z,19.85
2022-10-22T16:32:18.110Z,19.45
2022-10-22T16:37:23.248Z,19.33
2022-10-22T16:42:26.953Z,19.11
2022-10-22T16:47:30.956Z,18.92
2022-10-22T16:52:36.465Z,18.67
2022-10-22T16:57:40.468Z,18.49
2022-10-22T17:02:44.570Z,18.37
2022-10-22T17:07:50.414Z,18.19
2022-10-22T17:12:54.373Z,18.06
2022-10-22T17:18:00.808Z,17.86
2022-10-22T17:23:05.939Z,17.72
2022-10-22T17:28:10.167Z,17.59
2022-10-22T17:33:13.953Z,17.47
2022-10-22T17:38:18.993Z,17.32
2022-10-22T17:43:22.704Z,17.22
2022-10-22T17:48:26.516Z,17.11
2022-10-22T17:53:31.888Z,17.02
2022-10-22T17:58:35.649Z,16.92
2022-10-22T18:03:39.362Z,16.82
2022-10-22T18:08:44.689Z,16.75
2022-10-22T18:13:50.491Z,16.63
2022-10-22T18:18:56.568Z,16.52
2022-10-22T18:24:01.683Z,16.49
2022-10-22T18:29:05.532Z,16.49
2022-10-22T18:34:09.218Z,16.43
2022-10-22T18:39:16.100Z,16.40
2022-10-22T18:44:19.844Z,16.37
2022-10-22T18:49:23.611Z,16.33
2022-10-22T18:54:28.813Z,16.30
2022-10-22T18:59:32.483Z,16.18
2022-10-22T19:04:37.520Z,16.11
2022-10-22T19:09:43.868Z,16.02
2022-10-22T19:14:48.780Z,15.97
2022-10-22T19:19:52.517Z,15.94
2022-10-22T19:24:58.882Z,15.88
2022-10-22T19:30:02.564Z,15.77
2022-10-22T19:35:06.734Z,15.67
2022-10-22T19:40:13.198Z,15.60
2022-10-22T19:45:18.283Z,15.62
2022-10-22T19:50:21.976Z,15.58
2022-10-22T19:55:27.160Z,15.47
2022-10-22T20:00:32.148Z,15.42
2022-10-22T20:05:39.268Z,15.35
2022-10-22T20:10:44.525Z,15.26
2022-10-22T20:15:49.548Z,15.16
2022-10-22T20:20:53.307Z,15.13
2022-10-22T20:25:58.304Z,15.06
2022-10-22T20:31:02.087Z,15.06
2022-10-22T20:36:08.725Z,15.06
2022-10-22T20:41:16.194Z,15.10
2022-10-22T20:46:23.098Z,15.09
2022-10-22T20:51:27.129Z,15.05
2022-10-22T20:56:33.148Z,15.05
2022-10-22T21:01:39.612Z,15.05
2022-10-22T21:06:43.595Z,15.00
2022-10-22T21:11:48.749Z,14.93
2022-10-22T21:16:53.186Z,14.91
2022-10-22T21:21:56.833Z,14.88
2022-10-22T21:27:02.685Z,14.83
2022-10-22T21:32:06.636Z,14.78
2022-10-22T21:37:10.404Z,14.75
2022-10-22T21:42:17.103Z,14.69
2022-10-22T21:47:20.791Z,14.68
2022-10-22T21:52:24.670Z,14.69
2022-10-22T21:57:29.765Z,14.67
2022-10-22T22:02:33.528Z,14.67
2022-10-22T22:07:37.286Z,14.69
2022-10-22T22:12:42.520Z,14.70
2022-10-22T22:17:47.685Z,14.70
2022-10-22T22:22:51.361Z,14.68
2022-10-22T22:27:56.417Z,14.65
2022-10-22T22:33:00.123Z,14.64
2022-10-22T22:38:04.162Z,14.54
2022-10-22T22:43:09.660Z,14.56
2022-10-22T22:48:13.372Z,14.52
2022-10-22T22:53:17.036Z,14.49
2022-10-22T22:58:22.093Z,14.49
2022-10-22T23:03:25.817Z,14.43
2022-10-22T23:08:29.507Z,14.36
2022-10-22T23:13:35.259Z,14.26
2022-10-22T23:18:38.948Z,14.21
2022-10-22T23:23:44.664Z,14.16
2022-10-22T23:28:50.156Z,14.13
2022-10-22T23:33:53.867Z,14.09
2022-10-22T23:38:57.884Z,14.09
2022-10-22T23:44:03.384Z,14.09
2022-10-22T23:49:08.531Z,14.08
2022-10-22T23:54:14.477Z,14.05
2022-10-22T23:59:19.522Z,14.05
